sensor_id;sensor_type;location;lat;lon;timestamp;temperature;humidity
52103;DHT22;38101;53.126;6.878;2023-01-13T00:01:19;10.10;99.90
52103;DHT22;38101;53.126;6.878;2023-01-13T00:03:46;10.00;99.90
52103;DHT22;38101;53.126;6.878;2023-01-13T00:06:17;9.90;99.90
52103;DHT22;38101;53.126;6.878;2023-01-13T00:08:43;9.90;99.90
52103;DHT22;38101;53.126;6.878;2023-01-13T00:11:09;9.90;99.90
52103;DHT22;38101;53.126;6.878;2023-01-13T00:13:36;9.90;99.90
52103;DHT22;38101;53.126;6.878;2023-01-13T00:16:09;9.80;99.90
52103;DHT22;38101;53.126;6.878;2023-01-13T00:18:35;9.80;99.90
52103;DHT22;38101;53.126;6.878;2023-01-13T00:21:16;9.70;99.90
52103;DHT22;38101;53.126;6.878;2023-01-13T00:23:42;9.70;99.90
52103;DHT22;38101;53.126;6.878;2023-01-13T00:26:19;9.60;99.90
52103;DHT22;38101;53.126;6.878;2023-01-13T00:28:46;9.60;99.90
52103;DHT22;38101;53.126;6.878;2023-01-13T00:31:14;9.70;99.90
52103;DHT22;38101;53.126;6.878;2023-01-13T00:33:41;9.60;99.90
52103;DHT22;38101;53.126;6.878;2023-01-13T00:36:07;9.50;99.90
52103;DHT22;38101;53.126;6.878;2023-01-13T00:38:35;9.50;99.90
52103;DHT22;38101;53.126;6.878;2023-01-13T00:41:08;9.40;99.90
52103;DHT22;38101;53.126;6.878;2023-01-13T00:43:36;9.40;99.90
52103;DHT22;38101;53.126;6.878;2023-01-13T00:46:03;9.30;99.90
52103;DHT22;38101;53.126;6.878;2023-01-13T00:48:29;9.30;99.90
52103;DHT22;38101;53.126;6.878;2023-01-13T00:51:00;9.30;99.90
52103;DHT22;38101;53.126;6.878;2023-01-13T00:53:27;9.30;99.90
52103;DHT22;38101;53.126;6.878;2023-01-13T00:56:00;9.30;99.90
52103;DHT22;38101;53.126;6.878;2023-01-13T00:58:27;9.20;99.90
52103;DHT22;38101;53.126;6.878;2023-01-13T01:00:59;9.30;99.90
52103;DHT22;38101;53.126;6.878;2023-01-13T01:03:24;9.20;99.90
52103;DHT22;38101;53.126;6.878;2023-01-13T01:05:50;9.10;99.90
52103;DHT22;38101;53.126;6.878;2023-01-13T01:08:16;9.20;99.90
52103;DHT22;38101;53.126;6.878;2023-01-13T01:10:42;9.10;99.90
52103;DHT22;38101;53.126;6.878;2023-01-13T01:13:07;9.10;99.90
52103;DHT22;38101;53.126;6.878;2023-01-13T01:15:39;9.00;99.90
52103;DHT22;38101;53.126;6.878;2023-01-13T01:18:08;9.00;99.90
52103;DHT22;38101;53.126;6.878;2023-01-13T01:20:35;9.00;99.90
52103;DHT22;38101;53.126;6.878;2023-01-13T01:23:00;9.10;99.90
52103;DHT22;38101;53.126;6.878;2023-01-13T01:25:26;8.90;99.90
52103;DHT22;38101;53.126;6.878;2023-01-13T01:27:52;9.00;99.90
52103;DHT22;38101;53.126;6.878;2023-01-13T01:30:18;9.00;99.90
52103;DHT22;38101;53.126;6.878;2023-01-13T01:32:44;8.90;99.90
52103;DHT22;38101;53.126;6.878;2023-01-13T01:35:10;8.90;99.90
52103;DHT22;38101;53.126;6.878;2023-01-13T01:37:36;8.90;99.90
52103;DHT22;38101;53.126;6.878;2023-01-13T01:40:01;8.90;99.90
52103;DHT22;38101;53.126;6.878;2023-01-13T01:42:27;8.90;99.90
52103;DHT22;38101;53.126;6.878;2023-01-13T01:45:18;8.90;99.90
52103;DHT22;38101;53.126;6.878;2023-01-13T01:47:48;8.90;99.90
52103;DHT22;38101;53.126;6.878;2023-01-13T01:50:16;8.80;99.90
52103;DHT22;38101;53.126;6.878;2023-01-13T01:52:44;8.80;99.90
52103;DHT22;38101;53.126;6.878;2023-01-13T01:55:26;8.80;99.90
52103;DHT22;38101;53.126;6.878;2023-01-13T02:00:27;8.80;99.90
52103;DHT22;38101;53.126;6.878;2023-01-13T02:02:53;8.80;99.90
52103;DHT22;38101;53.126;6.878;2023-01-13T02:05:20;8.80;99.90
52103;DHT22;38101;53.126;6.878;2023-01-13T02:07:48;8.80;99.90
52103;DHT22;38101;53.126;6.878;2023-01-13T02:10:22;8.80;99.90
52103;DHT22;38101;53.126;6.878;2023-01-13T02:12:49;8.80;99.90
52103;DHT22;38101;53.126;6.878;2023-01-13T02:15:37;8.80;99.90
52103;DHT22;38101;53.126;6.878;2023-01-13T02:24:02;8.70;99.90
52103;DHT22;38101;53.126;6.878;2023-01-13T02:29:59;8.70;99.90
52103;DHT22;38101;53.126;6.878;2023-01-13T02:38:12;8.70;99.90
52103;DHT22;38101;53.126;6.878;2023-01-13T02:40:46;8.70;99.90
52103;DHT22;38101;53.126;6.878;2023-01-13T02:43:21;8.70;99.90
52103;DHT22;38101;53.126;6.878;2023-01-13T02:49:51;8.70;99.90
52103;DHT22;38101;53.126;6.878;2023-01-13T02:52:35;8.70;99.90
52103;DHT22;38101;53.126;6.878;2023-01-13T02:55:12;8.70;99.90
52103;DHT22;38101;53.126;6.878;2023-01-13T02:57:40;8.70;99.90
52103;DHT22;38101;53.126;6.878;2023-01-13T03:00:07;8.70;99.90
52103;DHT22;38101;53.126;6.878;2023-01-13T03:02:34;8.60;99.90
52103;DHT22;38101;53.126;6.878;2023-01-13T03:05:00;8.70;99.90
52103;DHT22;38101;53.126;6.878;2023-01-13T03:10:18;8.60;99.90
52103;DHT22;38101;53.126;6.878;2023-01-13T03:16:04;8.50;99.90
52103;DHT22;38101;53.126;6.878;2023-01-13T03:24:41;8.50;99.90
52103;DHT22;38101;53.126;6.878;2023-01-13T03:32:47;8.60;99.90
52103;DHT22;38101;53.126;6.878;2023-01-13T03:35:23;8.50;99.90
52103;DHT22;38101;53.126;6.878;2023-01-13T03:37:56;8.50;99.90
52103;DHT22;38101;53.126;6.878;2023-01-13T03:40:30;8.50;99.90
52103;DHT22;38101;53.126;6.878;2023-01-13T03:43:10;8.50;99.90
52103;DHT22;38101;53.126;6.878;2023-01-13T03:46:01;8.40;99.90
52103;DHT22;38101;53.126;6.878;2023-01-13T03:48:30;8.40;99.90
52103;DHT22;38101;53.126;6.878;2023-01-13T03:51:04;8.40;99.90
52103;DHT22;38101;53.126;6.878;2023-01-13T03:53:38;8.60;99.90
52103;DHT22;38101;53.126;6.878;2023-01-13T03:56:21;8.50;99.90
52103;DHT22;38101;53.126;6.878;2023-01-13T03:58:50;8.50;99.90
52103;DHT22;38101;53.126;6.878;2023-01-13T04:01:21;8.40;99.90
52103;DHT22;38101;53.126;6.878;2023-01-13T04:06:41;8.40;99.90
52103;DHT22;38101;53.126;6.878;2023-01-13T04:14:30;8.40;99.90
52103;DHT22;38101;53.126;6.878;2023-01-13T04:16:56;8.40;99.90
52103;DHT22;38101;53.126;6.878;2023-01-13T04:19:22;8.40;99.90
52103;DHT22;38101;53.126;6.878;2023-01-13T04:21:47;8.40;99.90
52103;DHT22;38101;53.126;6.878;2023-01-13T04:24:13;8.40;99.90
52103;DHT22;38101;53.126;6.878;2023-01-13T04:26:39;8.50;99.90
52103;DHT22;38101;53.126;6.878;2023-01-13T04:29:04;8.40;99.90
52103;DHT22;38101;53.126;6.878;2023-01-13T04:31:30;8.40;99.90
52103;DHT22;38101;53.126;6.878;2023-01-13T04:33:55;8.50;99.90
52103;DHT22;38101;53.126;6.878;2023-01-13T04:36:21;8.50;99.90
52103;DHT22;38101;53.126;6.878;2023-01-13T04:38:53;8.50;99.90
52103;DHT22;38101;53.126;6.878;2023-01-13T04:41:19;8.40;99.90
52103;DHT22;38101;53.126;6.878;2023-01-13T04:43:44;8.40;99.90
52103;DHT22;38101;53.126;6.878;2023-01-13T04:46:10;8.40;99.90
52103;DHT22;38101;53.126;6.878;2023-01-13T04:48:36;8.50;99.90
52103;DHT22;38101;53.126;6.878;2023-01-13T04:51:01;8.40;99.90
52103;DHT22;38101;53.126;6.878;2023-01-13T04:53:27;8.50;99.90
52103;DHT22;38101;53.126;6.878;2023-01-13T04:55:53;8.40;99.90
52103;DHT22;38101;53.126;6.878;2023-01-13T04:58:19;8.50;99.90
52103;DHT22;38101;53.126;6.878;2023-01-13T05:00:45;8.40;99.90
52103;DHT22;38101;53.126;6.878;2023-01-13T05:03:11;8.40;99.90
52103;DHT22;38101;53.126;6.878;2023-01-13T05:05:37;8.50;99.90
52103;DHT22;38101;53.126;6.878;2023-01-13T05:08:03;8.50;99.90
52103;DHT22;38101;53.126;6.878;2023-01-13T05:10:29;8.50;99.90
52103;DHT22;38101;53.126;6.878;2023-01-13T05:12:55;8.40;99.90
52103;DHT22;38101;53.126;6.878;2023-01-13T05:15:40;8.40;99.90
52103;DHT22;38101;53.126;6.878;2023-01-13T05:18:25;8.50;99.90
52103;DHT22;38101;53.126;6.878;2023-01-13T05:20:51;8.50;99.90
52103;DHT22;38101;53.126;6.878;2023-01-13T05:23:17;8.50;99.90
52103;DHT22;38101;53.126;6.878;2023-01-13T05:26:01;8.50;99.90
52103;DHT22;38101;53.126;6.878;2023-01-13T05:28:32;8.50;99.90
52103;DHT22;38101;53.126;6.878;2023-01-13T05:30:58;8.50;99.90
52103;DHT22;38101;53.126;6.878;2023-01-13T05:33:23;8.60;99.90
52103;DHT22;38101;53.126;6.878;2023-01-13T05:35:49;8.60;99.90
52103;DHT22;38101;53.126;6.878;2023-01-13T05:38:15;8.60;99.90
52103;DHT22;38101;53.126;6.878;2023-01-13T05:40:42;8.60;99.90
52103;DHT22;38101;53.126;6.878;2023-01-13T05:43:27;8.60;99.90
52103;DHT22;38101;53.126;6.878;2023-01-13T05:46:07;8.60;99.90
52103;DHT22;38101;53.126;6.878;2023-01-13T05:48:38;8.60;99.90
52103;DHT22;38101;53.126;6.878;2023-01-13T05:51:06;8.60;99.90
52103;DHT22;38101;53.126;6.878;2023-01-13T05:53:32;8.60;99.90
52103;DHT22;38101;53.126;6.878;2023-01-13T05:56:02;8.60;99.90
52103;DHT22;38101;53.126;6.878;2023-01-13T05:58:28;8.60;99.90
52103;DHT22;38101;53.126;6.878;2023-01-13T06:00:59;8.60;99.90
52103;DHT22;38101;53.126;6.878;2023-01-13T06:03:25;8.70;99.90
52103;DHT22;38101;53.126;6.878;2023-01-13T06:05:50;8.70;99.90
52103;DHT22;38101;53.126;6.878;2023-01-13T06:08:23;8.70;99.90
52103;DHT22;38101;53.126;6.878;2023-01-13T06:10:48;8.60;99.90
52103;DHT22;38101;53.126;6.878;2023-01-13T06:13:14;8.70;99.90
52103;DHT22;38101;53.126;6.878;2023-01-13T06:15:40;8.60;99.90
52103;DHT22;38101;53.126;6.878;2023-01-13T06:18:06;8.60;99.90
52103;DHT22;38101;53.126;6.878;2023-01-13T06:20:31;8.60;99.90
52103;DHT22;38101;53.126;6.878;2023-01-13T06:22:58;8.60;99.90
52103;DHT22;38101;53.126;6.878;2023-01-13T06:25:48;8.60;99.90
52103;DHT22;38101;53.126;6.878;2023-01-13T06:28:15;8.60;99.90
52103;DHT22;38101;53.126;6.878;2023-01-13T06:30:47;8.60;99.90
52103;DHT22;38101;53.126;6.878;2023-01-13T06:33:17;8.60;99.90
52103;DHT22;38101;53.126;6.878;2023-01-13T06:35:48;8.60;99.90
52103;DHT22;38101;53.126;6.878;2023-01-13T06:38:15;8.60;99.90
52103;DHT22;38101;53.126;6.878;2023-01-13T06:40:43;8.70;99.90
52103;DHT22;38101;53.126;6.878;2023-01-13T06:43:09;8.60;99.90
52103;DHT22;38101;53.126;6.878;2023-01-13T06:45:47;8.60;99.90
52103;DHT22;38101;53.126;6.878;2023-01-13T06:48:14;8.60;99.90
52103;DHT22;38101;53.126;6.878;2023-01-13T06:50:40;8.60;99.90
52103;DHT22;38101;53.126;6.878;2023-01-13T06:53:07;8.60;99.90
52103;DHT22;38101;53.126;6.878;2023-01-13T06:55:32;8.60;99.90
52103;DHT22;38101;53.126;6.878;2023-01-13T06:57:58;8.60;99.90
52103;DHT22;38101;53.126;6.878;2023-01-13T07:00:24;8.60;99.90
52103;DHT22;38101;53.126;6.878;2023-01-13T07:02:51;8.60;99.90
52103;DHT22;38101;53.126;6.878;2023-01-13T07:05:17;8.60;99.90
52103;DHT22;38101;53.126;6.878;2023-01-13T07:07:43;8.60;99.90
52103;DHT22;38101;53.126;6.878;2023-01-13T07:10:11;8.60;99.90
52103;DHT22;38101;53.126;6.878;2023-01-13T07:12:39;8.60;99.90
52103;DHT22;38101;53.126;6.878;2023-01-13T07:15:24;8.60;99.90
52103;DHT22;38101;53.126;6.878;2023-01-13T07:17:50;8.60;99.90
52103;DHT22;38101;53.126;6.878;2023-01-13T07:20:16;8.60;99.90
52103;DHT22;38101;53.126;6.878;2023-01-13T07:22:42;8.50;99.90
52103;DHT22;38101;53.126;6.878;2023-01-13T07:25:08;8.50;99.90
52103;DHT22;38101;53.126;6.878;2023-01-13T07:27:34;8.50;99.90
52103;DHT22;38101;53.126;6.878;2023-01-13T07:30:00;8.50;99.90
52103;DHT22;38101;53.126;6.878;2023-01-13T07:32:25;8.40;99.90
52103;DHT22;38101;53.126;6.878;2023-01-13T07:34:51;8.40;99.90
52103;DHT22;38101;53.126;6.878;2023-01-13T07:37:17;8.40;99.90
52103;DHT22;38101;53.126;6.878;2023-01-13T07:39:42;8.40;99.90
52103;DHT22;38101;53.126;6.878;2023-01-13T07:42:09;8.40;99.90
52103;DHT22;38101;53.126;6.878;2023-01-13T07:44:53;8.30;99.90
52103;DHT22;38101;53.126;6.878;2023-01-13T07:47:19;8.30;99.90
52103;DHT22;38101;53.126;6.878;2023-01-13T07:49:48;8.30;99.90
52103;DHT22;38101;53.126;6.878;2023-01-13T07:52:14;8.20;99.90
52103;DHT22;38101;53.126;6.878;2023-01-13T07:54:39;8.20;99.90
52103;DHT22;38101;53.126;6.878;2023-01-13T07:57:05;8.20;99.90
52103;DHT22;38101;53.126;6.878;2023-01-13T07:59:30;8.20;99.90
52103;DHT22;38101;53.126;6.878;2023-01-13T08:01:56;8.10;99.90
52103;DHT22;38101;53.126;6.878;2023-01-13T08:04:22;8.10;99.90
52103;DHT22;38101;53.126;6.878;2023-01-13T08:06:48;8.10;99.90
52103;DHT22;38101;53.126;6.878;2023-01-13T08:09:14;8.10;99.90
52103;DHT22;38101;53.126;6.878;2023-01-13T08:11:39;8.00;99.90
52103;DHT22;38101;53.126;6.878;2023-01-13T08:14:05;8.00;99.90
52103;DHT22;38101;53.126;6.878;2023-01-13T08:16:32;8.00;99.90
52103;DHT22;38101;53.126;6.878;2023-01-13T08:18:58;8.00;99.90
52103;DHT22;38101;53.126;6.878;2023-01-13T08:21:24;8.00;99.90
52103;DHT22;38101;53.126;6.878;2023-01-13T08:23:49;8.10;99.90
52103;DHT22;38101;53.126;6.878;2023-01-13T08:26:16;8.00;99.90
52103;DHT22;38101;53.126;6.878;2023-01-13T08:28:43;8.10;99.90
52103;DHT22;38101;53.126;6.878;2023-01-13T08:31:13;8.00;99.90
52103;DHT22;38101;53.126;6.878;2023-01-13T08:33:40;8.10;99.90
52103;DHT22;38101;53.126;6.878;2023-01-13T08:36:08;8.20;99.90
52103;DHT22;38101;53.126;6.878;2023-01-13T08:38:35;8.10;99.90
52103;DHT22;38101;53.126;6.878;2023-01-13T08:41:14;8.10;99.90
52103;DHT22;38101;53.126;6.878;2023-01-13T08:43:40;8.10;99.90
52103;DHT22;38101;53.126;6.878;2023-01-13T08:46:06;8.10;99.90
52103;DHT22;38101;53.126;6.878;2023-01-13T08:48:32;8.10;99.90
52103;DHT22;38101;53.126;6.878;2023-01-13T08:51:03;8.10;99.90
52103;DHT22;38101;53.126;6.878;2023-01-13T08:53:29;8.10;99.90
52103;DHT22;38101;53.126;6.878;2023-01-13T08:55:55;8.10;99.90
52103;DHT22;38101;53.126;6.878;2023-01-13T08:58:20;8.10;99.90
52103;DHT22;38101;53.126;6.878;2023-01-13T09:00:46;8.10;99.90
52103;DHT22;38101;53.126;6.878;2023-01-13T09:03:12;8.10;99.90
52103;DHT22;38101;53.126;6.878;2023-01-13T09:05:38;8.20;99.90
52103;DHT22;38101;53.126;6.878;2023-01-13T09:08:04;8.10;99.90
52103;DHT22;38101;53.126;6.878;2023-01-13T09:10:29;8.10;99.90
52103;DHT22;38101;53.126;6.878;2023-01-13T09:12:55;8.10;99.90
52103;DHT22;38101;53.126;6.878;2023-01-13T09:15:36;8.10;99.90
52103;DHT22;38101;53.126;6.878;2023-01-13T09:18:02;8.20;99.90
52103;DHT22;38101;53.126;6.878;2023-01-13T09:20:27;8.10;99.90
52103;DHT22;38101;53.126;6.878;2023-01-13T09:22:53;8.10;99.90
52103;DHT22;38101;53.126;6.878;2023-01-13T09:25:19;8.20;99.90
52103;DHT22;38101;53.126;6.878;2023-01-13T09:27:44;8.10;99.90
52103;DHT22;38101;53.126;6.878;2023-01-13T09:30:10;8.10;99.90
52103;DHT22;38101;53.126;6.878;2023-01-13T09:32:36;8.10;99.90
52103;DHT22;38101;53.126;6.878;2023-01-13T09:35:04;8.10;99.90
52103;DHT22;38101;53.126;6.878;2023-01-13T09:37:35;8.10;99.90
52103;DHT22;38101;53.126;6.878;2023-01-13T09:40:03;8.00;99.90
52103;DHT22;38101;53.126;6.878;2023-01-13T09:42:43;8.10;99.90
52103;DHT22;38101;53.126;6.878;2023-01-13T09:45:33;8.00;99.90
52103;DHT22;38101;53.126;6.878;2023-01-13T09:48:15;8.00;99.90
52103;DHT22;38101;53.126;6.878;2023-01-13T09:51:05;7.90;99.90
52103;DHT22;38101;53.126;6.878;2023-01-13T09:53:41;8.00;99.90
52103;DHT22;38101;53.126;6.878;2023-01-13T09:56:11;7.90;99.90
52103;DHT22;38101;53.126;6.878;2023-01-13T09:58:37;7.90;99.90
52103;DHT22;38101;53.126;6.878;2023-01-13T10:01:13;7.80;99.90
52103;DHT22;38101;53.126;6.878;2023-01-13T10:03:40;7.80;99.90
52103;DHT22;38101;53.126;6.878;2023-01-13T10:06:34;7.90;99.90
52103;DHT22;38101;53.126;6.878;2023-01-13T10:09:01;7.80;99.90
52103;DHT22;38101;53.126;6.878;2023-01-13T10:11:39;7.80;99.90
52103;DHT22;38101;53.126;6.878;2023-01-13T10:14:48;7.80;99.90
52103;DHT22;38101;53.126;6.878;2023-01-13T10:17:30;7.80;99.90
52103;DHT22;38101;53.126;6.878;2023-01-13T10:28:11;7.90;99.90
52103;DHT22;38101;53.126;6.878;2023-01-13T10:30:40;7.90;99.90
52103;DHT22;38101;53.126;6.878;2023-01-13T10:33:12;7.90;99.90
52103;DHT22;38101;53.126;6.878;2023-01-13T10:35:54;7.90;99.90
52103;DHT22;38101;53.126;6.878;2023-01-13T10:38:27;7.90;99.90
52103;DHT22;38101;53.126;6.878;2023-01-13T10:40:59;7.90;99.90
52103;DHT22;38101;53.126;6.878;2023-01-13T10:43:26;7.90;99.90
52103;DHT22;38101;53.126;6.878;2023-01-13T10:48:43;8.00;99.90
52103;DHT22;38101;53.126;6.878;2023-01-13T10:51:20;7.90;99.90
52103;DHT22;38101;53.126;6.878;2023-01-13T10:54:01;7.90;99.90
52103;DHT22;38101;53.126;6.878;2023-01-13T10:56:32;7.90;99.90
52103;DHT22;38101;53.126;6.878;2023-01-13T11:02:01;8.10;99.90
52103;DHT22;38101;53.126;6.878;2023-01-13T11:04:36;8.00;99.90
52103;DHT22;38101;53.126;6.878;2023-01-13T11:07:05;8.00;99.90
52103;DHT22;38101;53.126;6.878;2023-01-13T11:09:40;8.00;99.90
52103;DHT22;38101;53.126;6.878;2023-01-13T11:12:30;8.00;99.90
52103;DHT22;38101;53.126;6.878;2023-01-13T11:14:56;8.00;99.90
52103;DHT22;38101;53.126;6.878;2023-01-13T11:17:27;8.00;99.90
52103;DHT22;38101;53.126;6.878;2023-01-13T11:22:48;8.00;99.90
52103;DHT22;38101;53.126;6.878;2023-01-13T11:25:26;8.10;99.90
52103;DHT22;38101;53.126;6.878;2023-01-13T11:31:14;8.10;99.90
52103;DHT22;38101;53.126;6.878;2023-01-13T11:33:57;8.10;99.90
52103;DHT22;38101;53.126;6.878;2023-01-13T11:36:27;8.20;99.90
52103;DHT22;38101;53.126;6.878;2023-01-13T11:39:02;8.30;99.90
52103;DHT22;38101;53.126;6.878;2023-01-13T11:42:00;8.30;99.90
52103;DHT22;38101;53.126;6.878;2023-01-13T11:45:10;8.20;99.90
52103;DHT22;38101;53.126;6.878;2023-01-13T11:47:38;8.20;99.90
52103;DHT22;38101;53.126;6.878;2023-01-13T11:50:14;8.20;99.90
52103;DHT22;38101;53.126;6.878;2023-01-13T11:52:56;8.20;99.90
52103;DHT22;38101;53.126;6.878;2023-01-13T11:55:29;8.30;99.90
52103;DHT22;38101;53.126;6.878;2023-01-13T12:00:25;8.30;99.90
52103;DHT22;38101;53.126;6.878;2023-01-13T12:05:34;8.40;99.90
52103;DHT22;38101;53.126;6.878;2023-01-13T12:08:20;8.50;99.90
52103;DHT22;38101;53.126;6.878;2023-01-13T12:11:21;8.50;99.90
52103;DHT22;38101;53.126;6.878;2023-01-13T12:14:06;8.50;99.90
52103;DHT22;38101;53.126;6.878;2023-01-13T12:16:47;8.50;99.90
52103;DHT22;38101;53.126;6.878;2023-01-13T12:19:28;8.50;99.90
52103;DHT22;38101;53.126;6.878;2023-01-13T12:22:14;8.60;99.90
52103;DHT22;38101;53.126;6.878;2023-01-13T12:29:50;8.50;99.90
52103;DHT22;38101;53.126;6.878;2023-01-13T12:32:42;8.50;99.90
52103;DHT22;38101;53.126;6.878;2023-01-13T12:38:39;8.60;99.90
52103;DHT22;38101;53.126;6.878;2023-01-13T12:44:24;8.60;99.90
52103;DHT22;38101;53.126;6.878;2023-01-13T12:46:52;8.70;99.90
52103;DHT22;38101;53.126;6.878;2023-01-13T12:54:32;8.70;99.90
52103;DHT22;38101;53.126;6.878;2023-01-13T12:56:58;8.80;99.90
52103;DHT22;38101;53.126;6.878;2023-01-13T13:04:42;8.90;99.90
52103;DHT22;38101;53.126;6.878;2023-01-13T13:07:17;8.90;99.90
52103;DHT22;38101;53.126;6.878;2023-01-13T13:09:51;9.10;99.90
52103;DHT22;38101;53.126;6.878;2023-01-13T13:15:28;9.10;99.90
52103;DHT22;38101;53.126;6.878;2023-01-13T13:20:59;9.20;99.90
52103;DHT22;38101;53.126;6.878;2023-01-13T13:24:10;9.20;99.90
52103;DHT22;38101;53.126;6.878;2023-01-13T13:26:29;9.20;99.90
52103;DHT22;38101;53.126;6.878;2023-01-13T13:35:06;9.20;99.90
52103;DHT22;38101;53.126;6.878;2023-01-13T13:39:56;9.20;99.90
52103;DHT22;38101;53.126;6.878;2023-01-13T13:42:50;9.20;99.90
52103;DHT22;38101;53.126;6.878;2023-01-13T13:45:48;9.10;99.90
52103;DHT22;38101;53.126;6.878;2023-01-13T13:48:51;9.10;99.90
52103;DHT22;38101;53.126;6.878;2023-01-13T13:51:28;9.10;99.90
52103;DHT22;38101;53.126;6.878;2023-01-13T13:53:57;9.20;99.90
52103;DHT22;38101;53.126;6.878;2023-01-13T13:56:26;9.20;99.90
52103;DHT22;38101;53.126;6.878;2023-01-13T13:58:52;9.20;99.90
52103;DHT22;38101;53.126;6.878;2023-01-13T14:01:31;9.20;99.90
52103;DHT22;38101;53.126;6.878;2023-01-13T14:04:18;9.40;99.90
52103;DHT22;38101;53.126;6.878;2023-01-13T14:06:59;9.40;99.90
52103;DHT22;38101;53.126;6.878;2023-01-13T14:09:42;9.40;99.90
52103;DHT22;38101;53.126;6.878;2023-01-13T14:12:20;9.40;99.90
52103;DHT22;38101;53.126;6.878;2023-01-13T14:14:47;9.30;99.90
52103;DHT22;38101;53.126;6.878;2023-01-13T14:17:25;9.30;99.90
52103;DHT22;38101;53.126;6.878;2023-01-13T14:20:04;9.40;99.90
52103;DHT22;38101;53.126;6.878;2023-01-13T14:22:31;9.40;99.90
52103;DHT22;38101;53.126;6.878;2023-01-13T14:24:57;9.50;99.90
52103;DHT22;38101;53.126;6.878;2023-01-13T14:27:25;9.50;99.90
52103;DHT22;38101;53.126;6.878;2023-01-13T14:29:57;9.50;99.90
52103;DHT22;38101;53.126;6.878;2023-01-13T14:32:30;9.60;99.90
52103;DHT22;38101;53.126;6.878;2023-01-13T14:34:57;9.40;99.90
52103;DHT22;38101;53.126;6.878;2023-01-13T14:37:40;9.40;99.90
52103;DHT22;38101;53.126;6.878;2023-01-13T14:43:18;9.30;99.90
52103;DHT22;38101;53.126;6.878;2023-01-13T14:45:55;9.20;99.90
52103;DHT22;38101;53.126;6.878;2023-01-13T14:48:26;9.10;99.90
52103;DHT22;38101;53.126;6.878;2023-01-13T14:50:55;9.10;99.90
52103;DHT22;38101;53.126;6.878;2023-01-13T14:53:40;9.00;99.90
52103;DHT22;38101;53.126;6.878;2023-01-13T15:01:56;9.10;99.90
52103;DHT22;38101;53.126;6.878;2023-01-13T15:04:25;9.10;99.90
52103;DHT22;38101;53.126;6.878;2023-01-13T15:06:54;9.20;99.90
52103;DHT22;38101;53.126;6.878;2023-01-13T15:09:27;9.20;99.90
52103;DHT22;38101;53.126;6.878;2023-01-13T15:11:53;9.20;99.90
52103;DHT22;38101;53.126;6.878;2023-01-13T15:14:29;9.20;99.90
52103;DHT22;38101;53.126;6.878;2023-01-13T15:16:58;9.20;99.90
52103;DHT22;38101;53.126;6.878;2023-01-13T15:19:24;9.20;99.90
52103;DHT22;38101;53.126;6.878;2023-01-13T15:21:50;9.20;99.90
52103;DHT22;38101;53.126;6.878;2023-01-13T15:24:15;9.20;99.90
52103;DHT22;38101;53.126;6.878;2023-01-13T15:26:41;9.20;99.90
52103;DHT22;38101;53.126;6.878;2023-01-13T15:29:12;9.20;99.90
52103;DHT22;38101;53.126;6.878;2023-01-13T15:31:41;9.20;99.90
52103;DHT22;38101;53.126;6.878;2023-01-13T15:34:07;9.20;99.90
52103;DHT22;38101;53.126;6.878;2023-01-13T15:36:33;9.20;99.90
52103;DHT22;38101;53.126;6.878;2023-01-13T15:39:01;9.10;99.90
52103;DHT22;38101;53.126;6.878;2023-01-13T15:41:27;9.00;99.90
52103;DHT22;38101;53.126;6.878;2023-01-13T15:44:13;8.90;99.90
52103;DHT22;38101;53.126;6.878;2023-01-13T15:47:00;9.00;99.90
52103;DHT22;38101;53.126;6.878;2023-01-13T15:49:39;9.00;99.90
52103;DHT22;38101;53.126;6.878;2023-01-13T15:52:19;9.00;99.90
52103;DHT22;38101;53.126;6.878;2023-01-13T15:54:45;8.90;99.90
52103;DHT22;38101;53.126;6.878;2023-01-13T15:57:32;8.80;99.90
52103;DHT22;38101;53.126;6.878;2023-01-13T16:00:14;8.80;99.90
52103;DHT22;38101;53.126;6.878;2023-01-13T16:02:40;8.80;99.90
52103;DHT22;38101;53.126;6.878;2023-01-13T16:05:06;8.90;99.90
52103;DHT22;38101;53.126;6.878;2023-01-13T16:07:32;8.90;99.90
52103;DHT22;38101;53.126;6.878;2023-01-13T16:09:57;8.90;99.90
52103;DHT22;38101;53.126;6.878;2023-01-13T16:12:26;8.90;99.90
52103;DHT22;38101;53.126;6.878;2023-01-13T16:14:51;8.90;99.90
52103;DHT22;38101;53.126;6.878;2023-01-13T16:17:23;9.00;99.90
52103;DHT22;38101;53.126;6.878;2023-01-13T16:19:50;9.10;99.90
52103;DHT22;38101;53.126;6.878;2023-01-13T16:22:17;9.10;99.90
52103;DHT22;38101;53.126;6.878;2023-01-13T16:24:43;9.10;99.90
52103;DHT22;38101;53.126;6.878;2023-01-13T16:29:39;9.10;99.90
52103;DHT22;38101;53.126;6.878;2023-01-13T16:32:05;9.20;99.90
52103;DHT22;38101;53.126;6.878;2023-01-13T16:34:31;9.10;99.90
52103;DHT22;38101;53.126;6.878;2023-01-13T16:36:57;9.10;99.90
52103;DHT22;38101;53.126;6.878;2023-01-13T16:39:22;9.10;99.90
52103;DHT22;38101;53.126;6.878;2023-01-13T16:41:49;9.10;99.90
52103;DHT22;38101;53.126;6.878;2023-01-13T16:44:14;9.10;99.90
52103;DHT22;38101;53.126;6.878;2023-01-13T16:46:40;9.00;99.90
52103;DHT22;38101;53.126;6.878;2023-01-13T16:49:11;9.00;99.90
52103;DHT22;38101;53.126;6.878;2023-01-13T16:51:37;8.90;99.90
52103;DHT22;38101;53.126;6.878;2023-01-13T16:54:03;8.80;99.90
52103;DHT22;38101;53.126;6.878;2023-01-13T16:56:34;8.90;99.90
52103;DHT22;38101;53.126;6.878;2023-01-13T16:59:09;9.00;99.90
52103;DHT22;38101;53.126;6.878;2023-01-13T17:01:37;8.90;99.90
52103;DHT22;38101;53.126;6.878;2023-01-13T17:04:04;9.00;99.90
52103;DHT22;38101;53.126;6.878;2023-01-13T17:09:29;8.90;99.90
52103;DHT22;38101;53.126;6.878;2023-01-13T17:11:55;8.90;99.90
52103;DHT22;38101;53.126;6.878;2023-01-13T17:14:21;8.80;99.90
52103;DHT22;38101;53.126;6.878;2023-01-13T17:16:52;8.80;99.90
52103;DHT22;38101;53.126;6.878;2023-01-13T17:19:18;8.70;99.90
52103;DHT22;38101;53.126;6.878;2023-01-13T17:21:44;8.60;99.90
52103;DHT22;38101;53.126;6.878;2023-01-13T17:24:12;8.60;99.90
52103;DHT22;38101;53.126;6.878;2023-01-13T17:26:39;8.50;99.90
52103;DHT22;38101;53.126;6.878;2023-01-13T17:29:11;8.60;99.90
52103;DHT22;38101;53.126;6.878;2023-01-13T17:31:37;8.60;99.90
52103;DHT22;38101;53.126;6.878;2023-01-13T17:34:03;8.60;99.90
52103;DHT22;38101;53.126;6.878;2023-01-13T17:36:29;8.50;99.90
52103;DHT22;38101;53.126;6.878;2023-01-13T17:38:55;8.30;99.90
52103;DHT22;38101;53.126;6.878;2023-01-13T17:41:22;8.20;99.90
52103;DHT22;38101;53.126;6.878;2023-01-13T17:43:47;8.20;99.90
52103;DHT22;38101;53.126;6.878;2023-01-13T17:46:14;8.20;99.90
52103;DHT22;38101;53.126;6.878;2023-01-13T17:48:46;8.20;99.90
52103;DHT22;38101;53.126;6.878;2023-01-13T17:51:13;8.20;99.90
52103;DHT22;38101;53.126;6.878;2023-01-13T17:53:39;8.20;99.90
52103;DHT22;38101;53.126;6.878;2023-01-13T17:56:06;8.20;99.90
52103;DHT22;38101;53.126;6.878;2023-01-13T17:58:32;8.30;99.90
52103;DHT22;38101;53.126;6.878;2023-01-13T18:00:58;8.40;99.90
52103;DHT22;38101;53.126;6.878;2023-01-13T18:03:23;8.40;99.90
52103;DHT22;38101;53.126;6.878;2023-01-13T18:05:49;8.50;99.90
52103;DHT22;38101;53.126;6.878;2023-01-13T18:08:15;8.60;99.90
52103;DHT22;38101;53.126;6.878;2023-01-13T18:10:40;8.70;99.90